Capetan Panais — SW3297 — position and weather

sailwx.info

Track history (hours):
 
Tides and Currents Weather Stations Pressure Air Temp Water Temp Dewpoint Dewpoint Depression Visibility Wind Speed Wind Dir Waves Ship Positions

Capetan Panais

Last reported at 2018-Jun-18 07:49 UTC. Time now 2018-Jun-19 16:28 UTC.
Position N 40°02' E 024°02'.

Length 24 m; draft 2.5 m.

Type: Fishing. MMSI: 237884000.

Date/timePositionNaut miles runAvg speedWind from/ knotsBaromVisibWave heightAir tempDewpointWater temp
2018-Jun-18 07:49N 40°02' E 024°02'7 8.7
2018-Jun-18 07:01N 40°08' E 023°59'0 8.8
2018-Jun-18 06:59N 40°08' E 023°58'5 8.8
2018-Jun-18 06:28N 40°11' E 023°54'  
2018-Jun-14 22:15N 40°14' E 023°44'1 1.9
2018-Jun-14 21:55N 40°15' E 023°44'6 2.5
2018-Jun-14 19:39N 40°20' E 023°47'0 1.3
2018-Jun-14 19:28N 40°20' E 023°47'0 0.3
2018-Jun-14 18:54N 40°20' E 023°47'0 0.3
2018-Jun-14 18:08N 40°20' E 023°47'2 2.8
2018-Jun-14 17:30N 40°19' E 023°45'4 0.2
2018-Jun-13 18:34N 40°20' E 023°49'0 1.5
2018-Jun-13 18:25N 40°20' E 023°49'2 4.8
2018-Jun-13 17:59N 40°20' E 023°46'1 2.6
2018-Jun-13 17:30N 40°20' E 023°48'4 8.5
2018-Jun-13 17:00N 40°21' E 023°53'2 3.0
2018-Jun-13 16:30N 40°22' E 023°55'0 0.0
2018-Jun-13 15:58N 40°22' E 023°55'0 0.4
2018-Jun-13 15:20N 40°22' E 023°55'11 9.5
2018-Jun-13 14:09N 40°14' E 024°06'1 9.4
2018-Jun-13 13:59N 40°13' E 024°07'5 9.6
2018-Jun-13 13:30N 40°10' E 024°12'9 8.4
2018-Jun-13 12:26N 40°08' E 024°24'4 9.2
2018-Jun-13 12:00N 40°12' E 024°22'5 9.5
2018-Jun-13 11:30N 40°16' E 024°19'5 9.1
2018-Jun-13 11:00N 40°19' E 024°15'4 8.4
2018-Jun-13 10:30N 40°22' E 024°10'5 9.1
2018-Jun-13 10:00N 40°24' E 024°06'5 9.5
2018-Jun-13 09:30N 40°27' E 024°01'5 9.1
2018-Jun-13 09:00N 40°25' E 023°56'2 0.3
2018-Jun-13 01:56N 40°24' E 023°54'4 9.7
2018-Jun-13 01:30N 40°27' E 023°57'5 9.8
2018-Jun-13 00:57N 40°32' E 024°01'4 9.8
2018-Jun-13 00:30N 40°35' E 024°04'5 8.9
2018-Jun-13 00:00N 40°39' E 024°08'0 0.0
2018-Jun-12 23:27N 40°39' E 024°08'0 0.2
2018-Jun-12 23:00N 40°38' E 024°08'0 0.6
2018-Jun-12 22:30N 40°38' E 024°08'0 0.1
2018-Jun-12 21:59N 40°38' E 024°08'0 0.0
2018-Jun-12 21:30N 40°38' E 024°08'0 0.3
2018-Jun-12 21:00N 40°38' E 024°08'0 0.4
2018-Jun-12 20:29N 40°38' E 024°08'0 0.0
2018-Jun-12 20:00N 40°38' E 024°08'0 0.0
2018-Jun-12 19:30N 40°38' E 024°08'0 0.2
2018-Jun-12 19:00N 40°38' E 024°08'5 9.5
2018-Jun-12 18:30N 40°34' E 024°05'4 8.1
2018-Jun-12 18:00N 40°30' E 024°04'1 2.3
2018-Jun-12 17:30N 40°29' E 024°04'5 9.1
2018-Jun-12 17:00N 40°27' E 023°58'4 9.0
2018-Jun-12 16:30N 40°24' E 023°54'3 0.2
2018-Jun-12 00:17N 40°26' E 023°56'3 9.3
2018-Jun-11 23:59N 40°28' E 023°59'2 2.7
2018-Jun-11 23:24N 40°29' E 024°01'4 1.6
2018-Jun-11 21:02N 40°32' E 024°04'0 0.3
2018-Jun-11 21:00N 40°32' E 024°04'0 0.3
2018-Jun-11 20:30N 40°32' E 024°04'0 0.4
2018-Jun-11 19:57N 40°31' E 024°04'0 1.0
2018-Jun-11 19:29N 40°31' E 024°04'0 0.0
2018-Jun-11 19:00N 40°31' E 024°04'0 0.0
2018-Jun-11 18:30N 40°31' E 024°04'1 0.1
2018-Jun-10 20:54N 40°30' E 024°05'0 0.4
2018-Jun-10 20:01N 40°30' E 024°05'0 0.5
2018-Jun-10 20:00N 40°30' E 024°05'1 0.9
2018-Jun-10 19:24N 40°30' E 024°05'0 0.1
2018-Jun-10 19:00N 40°30' E 024°05'0 0.3
2018-Jun-10 18:08N 40°30' E 024°05'0 1.6
2018-Jun-10 18:00N 40°30' E 024°05'0 0.6
2018-Jun-10 17:26N 40°30' E 024°05'4 8.5
2018-Jun-10 16:58N 40°28' E 024°01'4 9.1
2018-Jun-10 16:30N 40°26' E 023°56'3 0.1
2018-Jun-08 22:33N 40°24' E 023°54'0 1.4
2018-Jun-08 22:28N 40°24' E 023°54'4 9.6
2018-Jun-08 22:00N 40°27' E 023°58'5 9.3
2018-Jun-08 21:30N 40°28' E 024°04'4 8.6
2018-Jun-08 21:00N 40°27' E 024°09'0 0.5
2018-Jun-08 20:30N 40°27' E 024°10'0 0.7
2018-Jun-08 20:00N 40°26' E 024°10'0 0.4
2018-Jun-08 19:30N 40°26' E 024°10'0 0.0
2018-Jun-08 18:55N 40°26' E 024°10'1 1.4
2018-Jun-08 18:30N 40°26' E 024°11'2 4.2
2018-Jun-08 17:59N 40°27' E 024°09'1 2.4
2018-Jun-08 17:30N 40°28' E 024°10'4 8.6
2018-Jun-08 17:00N 40°28' E 024°04'5 9.0
2018-Jun-08 16:30N 40°27' E 023°58'5 9.0
2018-Jun-08 16:00N 40°24' E 023°54'  
Track history (hours):
 
Tides and Currents Weather Stations Pressure Air Temp Water Temp Dewpoint Dewpoint Depression Visibility Wind Speed Wind Dir Waves Ship Positions

Capetan Panais

Last reported at 2018-Jun-18 07:49 UTC. Time now 2018-Jun-19 16:28 UTC.
Position N 40°02' E 024°02'.

Length 24 m; draft 2.5 m.

Type: Fishing. MMSI: 237884000.

Date/timePositionNaut miles runAvg speedWind from/ knotsBaromVisibWave heightAir tempDewpointWater temp
2018-Jun-18 07:49N 40°02' E 024°02'7 8.7
2018-Jun-18 07:01N 40°08' E 023°59'0 8.8
2018-Jun-18 06:59N 40°08' E 023°58'5 8.8
2018-Jun-18 06:28N 40°11' E 023°54'  
2018-Jun-14 22:15N 40°14' E 023°44'1 1.9
2018-Jun-14 21:55N 40°15' E 023°44'6 2.5
2018-Jun-14 19:39N 40°20' E 023°47'0 1.3
2018-Jun-14 19:28N 40°20' E 023°47'0 0.3
2018-Jun-14 18:54N 40°20' E 023°47'0 0.3
2018-Jun-14 18:08N 40°20' E 023°47'2 2.8
2018-Jun-14 17:30N 40°19' E 023°45'4 0.2
2018-Jun-13 18:34N 40°20' E 023°49'0 1.5
2018-Jun-13 18:25N 40°20' E 023°49'2 4.8
2018-Jun-13 17:59N 40°20' E 023°46'1 2.6
2018-Jun-13 17:30N 40°20' E 023°48'4 8.5
2018-Jun-13 17:00N 40°21' E 023°53'2 3.0
2018-Jun-13 16:30N 40°22' E 023°55'0 0.0
2018-Jun-13 15:58N 40°22' E 023°55'0 0.4
2018-Jun-13 15:20N 40°22' E 023°55'11 9.5
2018-Jun-13 14:09N 40°14' E 024°06'1 9.4
2018-Jun-13 13:59N 40°13' E 024°07'5 9.6
2018-Jun-13 13:30N 40°10' E 024°12'9 8.4
2018-Jun-13 12:26N 40°08' E 024°24'4 9.2
2018-Jun-13 12:00N 40°12' E 024°22'5 9.5
2018-Jun-13 11:30N 40°16' E 024°19'5 9.1
2018-Jun-13 11:00N 40°19' E 024°15'4 8.4
2018-Jun-13 10:30N 40°22' E 024°10'5 9.1
2018-Jun-13 10:00N 40°24' E 024°06'5 9.5
2018-Jun-13 09:30N 40°27' E 024°01'5 9.1
2018-Jun-13 09:00N 40°25' E 023°56'2 0.3
2018-Jun-13 01:56N 40°24' E 023°54'4 9.7
2018-Jun-13 01:30N 40°27' E 023°57'5 9.8
2018-Jun-13 00:57N 40°32' E 024°01'4 9.8
2018-Jun-13 00:30N 40°35' E 024°04'5 8.9
2018-Jun-13 00:00N 40°39' E 024°08'0 0.0
2018-Jun-12 23:27N 40°39' E 024°08'0 0.2
2018-Jun-12 23:00N 40°38' E 024°08'0 0.6
2018-Jun-12 22:30N 40°38' E 024°08'0 0.1
2018-Jun-12 21:59N 40°38' E 024°08'0 0.0
2018-Jun-12 21:30N 40°38' E 024°08'0 0.3
2018-Jun-12 21:00N 40°38' E 024°08'0 0.4
2018-Jun-12 20:29N 40°38' E 024°08'0 0.0
2018-Jun-12 20:00N 40°38' E 024°08'0 0.0
2018-Jun-12 19:30N 40°38' E 024°08'0 0.2
2018-Jun-12 19:00N 40°38' E 024°08'5 9.5
2018-Jun-12 18:30N 40°34' E 024°05'4 8.1
2018-Jun-12 18:00N 40°30' E 024°04'1 2.3
2018-Jun-12 17:30N 40°29' E 024°04'5 9.1
2018-Jun-12 17:00N 40°27' E 023°58'4 9.0
2018-Jun-12 16:30N 40°24' E 023°54'3 0.2
2018-Jun-12 00:17N 40°26' E 023°56'3 9.3
2018-Jun-11 23:59N 40°28' E 023°59'2 2.7
2018-Jun-11 23:24N 40°29' E 024°01'4 1.6
2018-Jun-11 21:02N 40°32' E 024°04'0 0.3
2018-Jun-11 21:00N 40°32' E 024°04'0 0.3
2018-Jun-11 20:30N 40°32' E 024°04'0 0.4
2018-Jun-11 19:57N 40°31' E 024°04'0 1.0
2018-Jun-11 19:29N 40°31' E 024°04'0 0.0
2018-Jun-11 19:00N 40°31' E 024°04'0 0.0
2018-Jun-11 18:30N 40°31' E 024°04'1 0.1
2018-Jun-10 20:54N 40°30' E 024°05'0 0.4
2018-Jun-10 20:01N 40°30' E 024°05'0 0.5
2018-Jun-10 20:00N 40°30' E 024°05'1 0.9
2018-Jun-10 19:24N 40°30' E 024°05'0 0.1
2018-Jun-10 19:00N 40°30' E 024°05'0 0.3
2018-Jun-10 18:08N 40°30' E 024°05'0 1.6
2018-Jun-10 18:00N 40°30' E 024°05'0 0.6
2018-Jun-10 17:26N 40°30' E 024°05'4 8.5
2018-Jun-10 16:58N 40°28' E 024°01'4 9.1
2018-Jun-10 16:30N 40°26' E 023°56'3 0.1
2018-Jun-08 22:33N 40°24' E 023°54'0 1.4
2018-Jun-08 22:28N 40°24' E 023°54'4 9.6
2018-Jun-08 22:00N 40°27' E 023°58'5 9.3
2018-Jun-08 21:30N 40°28' E 024°04'4 8.6
2018-Jun-08 21:00N 40°27' E 024°09'0 0.5
2018-Jun-08 20:30N 40°27' E 024°10'0 0.7
2018-Jun-08 20:00N 40°26' E 024°10'0 0.4
2018-Jun-08 19:30N 40°26' E 024°10'0 0.0
2018-Jun-08 18:55N 40°26' E 024°10'1 1.4
2018-Jun-08 18:30N 40°26' E 024°11'2 4.2
2018-Jun-08 17:59N 40°27' E 024°09'1 2.4
2018-Jun-08 17:30N 40°28' E 024°10'4 8.6
2018-Jun-08 17:00N 40°28' E 024°04'5 9.0
2018-Jun-08 16:30N 40°27' E 023°58'5 9.0
2018-Jun-08 16:00N 40°24' E 023°54'  

Dump ship's entire track history